Jin Cheng Zhou 88 — BLFQ2 — position and weather

sailwx.info

Track history (hours):
 
Tides and Currents Weather Stations Pressure Air Temp Water Temp Dewpoint Dewpoint Depression Visibility Wind Speed Wind Dir Waves Ship Positions

Jin Cheng Zhou 88

Last reported at 2017-Nov-23 13:59 UTC. Time now 2017-Dec-15 00:47 UTC.
Position N 24°14' E 118°15'.
Warning: this ship's position is 21 days out of date.

Length 159 m; draft 9.5 m.

Type: Cargo ship. MMSI: 412761670.

Date/timePositionNaut miles runAvg speedWind from/ knotsBaromVisibWave heightAir tempDewpointWater temp
2017-Nov-23 13:59N 24°14' E 118°15'4 7.8
2017-Nov-23 13:30N 24°16' E 118°19'  
2017-Nov-19 01:39N 37°44' E 121°49'1 9.3
2017-Nov-19 01:29N 37°45' E 121°47'12 8.9
2017-Nov-19 00:09N 37°49' E 121°33'2 9.3
2017-Nov-18 23:55N 37°49' E 121°30'4 9.0
2017-Nov-18 23:30N 37°50' E 121°25'  
2017-Nov-14 04:04N 37°52' E 121°29'1 8.4
2017-Nov-14 03:56N 37°52' E 121°30'4 8.6
2017-Nov-14 03:26N 37°51' E 121°35'4 8.8
2017-Nov-14 03:00N 37°50' E 121°40'5 8.6
2017-Nov-14 02:24N 37°48' E 121°46'  
Track history (hours):
 
Tides and Currents Weather Stations Pressure Air Temp Water Temp Dewpoint Dewpoint Depression Visibility Wind Speed Wind Dir Waves Ship Positions

Jin Cheng Zhou 88

Last reported at 2017-Nov-23 13:59 UTC. Time now 2017-Dec-15 00:47 UTC.
Position N 24°14' E 118°15'.
Warning: this ship's position is 21 days out of date.

Length 159 m; draft 9.5 m.

Type: Cargo ship. MMSI: 412761670.

Date/timePositionNaut miles runAvg speedWind from/ knotsBaromVisibWave heightAir tempDewpointWater temp
2017-Nov-23 13:59N 24°14' E 118°15'4 7.8
2017-Nov-23 13:30N 24°16' E 118°19'  
2017-Nov-19 01:39N 37°44' E 121°49'1 9.3
2017-Nov-19 01:29N 37°45' E 121°47'12 8.9
2017-Nov-19 00:09N 37°49' E 121°33'2 9.3
2017-Nov-18 23:55N 37°49' E 121°30'4 9.0
2017-Nov-18 23:30N 37°50' E 121°25'  
2017-Nov-14 04:04N 37°52' E 121°29'1 8.4
2017-Nov-14 03:56N 37°52' E 121°30'4 8.6
2017-Nov-14 03:26N 37°51' E 121°35'4 8.8
2017-Nov-14 03:00N 37°50' E 121°40'5 8.6
2017-Nov-14 02:24N 37°48' E 121°46'  

Dump ship's entire track history